createdAt,value
2022-12-03T00:00:16.835Z,-1.07
2022-12-03T00:02:45.901Z,-1.08
2022-12-03T00:05:13.668Z,-0.96
2022-12-03T00:07:41.406Z,-0.94
2022-12-03T00:10:10.126Z,-0.95
2022-12-03T00:12:37.750Z,-1.01
2022-12-03T00:15:07.039Z,-0.98
2022-12-03T00:17:34.800Z,-1.02
2022-12-03T00:20:05.030Z,-0.96
2022-12-03T00:22:32.664Z,-1.01
2022-12-03T00:25:00.338Z,-1.02
2022-12-03T00:27:28.172Z,-1.03
2022-12-03T00:29:55.879Z,-1.09
2022-12-03T00:32:23.546Z,-1.05
2022-12-03T00:34:51.355Z,-1.05
2022-12-03T00:37:20.673Z,-1.05
2022-12-03T00:39:48.336Z,-1.04
2022-12-03T00:42:15.961Z,-1.05
2022-12-03T00:44:43.648Z,-1.03
2022-12-03T00:47:11.324Z,-1.02
2022-12-03T00:49:39.052Z,-0.87
2022-12-03T00:52:06.666Z,-0.97
2022-12-03T00:54:35.676Z,-1.04
2022-12-03T00:57:03.348Z,-1.04
2022-12-03T00:59:31.015Z,-1.06
2022-12-03T01:01:58.765Z,-1.03
2022-12-03T01:04:26.518Z,-0.95
2022-12-03T01:06:54.224Z,-1.02
2022-12-03T01:09:21.899Z,-1.07
2022-12-03T01:11:50.902Z,-0.99
2022-12-03T01:14:20.382Z,-1.06
2022-12-03T01:16:48.571Z,-1.10
2022-12-03T01:19:17.531Z,-1.08
2022-12-03T01:21:45.938Z,-1.07
2022-12-03T01:24:13.934Z,-1.09
2022-12-03T01:26:41.649Z,-0.97
2022-12-03T01:29:10.748Z,-1.00
2022-12-03T01:31:55.778Z,-1.05
2022-12-03T01:34:23.473Z,-1.02
2022-12-03T01:36:52.358Z,-1.07
2022-12-03T01:39:20.460Z,-1.05
2022-12-03T01:41:49.704Z,-0.98
2022-12-03T01:44:22.465Z,-1.03
2022-12-03T01:46:51.631Z,-1.04
2022-12-03T01:49:23.154Z,-1.10
2022-12-03T01:51:53.000Z,-1.10
2022-12-03T01:54:23.702Z,-1.08
2022-12-03T01:56:51.683Z,-1.08
2022-12-03T01:59:23.993Z,-1.07
2022-12-03T02:01:51.742Z,-1.13
2022-12-03T02:04:23.514Z,-1.14
2022-12-03T02:06:51.315Z,-1.11
2022-12-03T02:09:18.957Z,-1.11
2022-12-03T02:11:50.541Z,-1.11
2022-12-03T02:14:22.970Z,-1.08
2022-12-03T02:16:50.559Z,-1.13
2022-12-03T02:19:24.954Z,-1.13
2022-12-03T02:22:01.696Z,-1.12
2022-12-03T02:24:36.448Z,-1.18
2022-12-03T02:27:05.510Z,-1.18
2022-12-03T02:29:33.288Z,-1.18
2022-12-03T02:32:01.018Z,-1.18
2022-12-03T02:34:36.666Z,-1.16
2022-12-03T02:37:07.041Z,-1.18
2022-12-03T02:39:36.331Z,-1.17
2022-12-03T02:42:23.885Z,-1.25
2022-12-03T02:44:52.305Z,-1.25
2022-12-03T02:47:22.243Z,-1.26
2022-12-03T02:49:50.435Z,-1.24
2022-12-03T02:52:18.190Z,-1.25
2022-12-03T02:54:46.022Z,-1.24
2022-12-03T02:57:15.684Z,-1.21
2022-12-03T02:59:45.138Z,-1.20
2022-12-03T03:02:13.591Z,-1.20
2022-12-03T03:04:42.167Z,-1.23
2022-12-03T03:07:10.513Z,-1.21
2022-12-03T03:09:38.479Z,-1.22
2022-12-03T03:12:06.767Z,-1.18
2022-12-03T03:14:36.467Z,-1.17
2022-12-03T03:17:05.120Z,-1.14
2022-12-03T03:19:33.142Z,-1.12
2022-12-03T03:22:01.100Z,-1.13
2022-12-03T03:24:28.940Z,-1.15
2022-12-03T03:26:56.701Z,-1.14
2022-12-03T03:29:24.522Z,-1.16
2022-12-03T03:31:53.832Z,-1.19
2022-12-03T03:34:21.707Z,-1.19
2022-12-03T03:36:49.363Z,-1.22
2022-12-03T03:39:17.144Z,-1.21
2022-12-03T03:41:47.004Z,-1.22
2022-12-03T03:44:15.156Z,-1.21
2022-12-03T03:46:43.747Z,-1.14
2022-12-03T03:49:13.464Z,-1.13
2022-12-03T03:51:41.359Z,-1.16
2022-12-03T03:54:09.642Z,-1.18
2022-12-03T03:56:37.945Z,-1.13
2022-12-03T03:59:05.918Z,-1.18
2022-12-03T04:01:34.112Z,-1.21
2022-12-03T04:04:02.018Z,-1.19
2022-12-03T04:06:31.031Z,-1.17
2022-12-03T04:08:58.688Z,-1.17
2022-12-03T04:11:43.626Z,-1.15
2022-12-03T04:14:11.281Z,-1.16
2022-12-03T04:16:38.965Z,-1.19
2022-12-03T04:19:06.647Z,-1.19
2022-12-03T04:21:53.215Z,-1.18
2022-12-03T04:24:20.840Z,-1.20
2022-12-03T04:27:06.130Z,-1.16
2022-12-03T04:29:33.751Z,-1.18
2022-12-03T04:32:19.164Z,-1.21
2022-12-03T04:35:18.887Z,-1.20
2022-12-03T04:37:47.932Z,-1.22
2022-12-03T04:40:29.664Z,-1.18
2022-12-03T04:42:57.294Z,-1.23
2022-12-03T04:45:24.900Z,-1.17
2022-12-03T04:47:52.517Z,-1.19
2022-12-03T04:50:20.137Z,-1.15
2022-12-03T04:52:49.119Z,-1.14
2022-12-03T04:55:16.883Z,-1.15
2022-12-03T04:57:44.502Z,-1.20
2022-12-03T05:00:13.527Z,-1.21
2022-12-03T05:02:41.250Z,-1.20
2022-12-03T05:05:10.735Z,-1.14
2022-12-03T05:07:38.597Z,-1.20
2022-12-03T05:10:09.009Z,-1.20
2022-12-03T05:12:36.727Z,-1.23
2022-12-03T05:15:05.361Z,-1.23
2022-12-03T05:17:33.112Z,-1.26
2022-12-03T05:20:18.528Z,-1.29
2022-12-03T05:22:46.143Z,-1.26
2022-12-03T05:25:15.184Z,-1.26
2022-12-03T05:27:42.814Z,-1.25
2022-12-03T05:30:11.365Z,-1.26
2022-12-03T05:32:38.973Z,-1.24
2022-12-03T05:35:07.350Z,-1.21
2022-12-03T05:37:34.991Z,-1.31
2022-12-03T05:40:02.827Z,-1.28
2022-12-03T05:42:49.371Z,-1.28
2022-12-03T05:45:17.148Z,-1.33
2022-12-03T05:47:44.860Z,-1.35
2022-12-03T05:50:13.128Z,-1.40
2022-12-03T05:52:40.762Z,-1.39
2022-12-03T05:55:09.715Z,-1.38
2022-12-03T05:57:38.753Z,-1.33
2022-12-03T06:00:08.959Z,-1.33
2022-12-03T06:02:36.753Z,-1.40
2022-12-03T06:05:05.000Z,-1.43
2022-12-03T06:07:32.716Z,-1.48
2022-12-03T06:10:00.407Z,-1.52
2022-12-03T06:12:28.083Z,-1.56
2022-12-03T06:14:57.116Z,-1.61
2022-12-03T06:17:24.777Z,-1.56
2022-12-03T06:19:52.389Z,-1.55
2022-12-03T06:22:20.351Z,-1.57
2022-12-03T06:24:48.031Z,-1.55
2022-12-03T06:27:15.713Z,-1.52
2022-12-03T06:29:43.425Z,-1.52
2022-12-03T06:32:12.566Z,-1.56
2022-12-03T06:34:40.424Z,-1.56
2022-12-03T06:37:08.315Z,-1.56
2022-12-03T06:39:35.983Z,-1.50
2022-12-03T06:42:03.593Z,-1.59
2022-12-03T06:44:31.232Z,-1.62
2022-12-03T06:46:59.032Z,-1.56
2022-12-03T06:49:28.177Z,-1.51
2022-12-03T06:51:55.874Z,-1.49
2022-12-03T06:54:23.486Z,-1.50
2022-12-03T06:56:51.109Z,-1.55
2022-12-03T06:59:18.719Z,-1.59
2022-12-03T07:01:46.470Z,-1.56
2022-12-03T07:04:14.275Z,-1.63
2022-12-03T07:06:43.697Z,-1.63
2022-12-03T07:09:11.498Z,-1.63
2022-12-03T07:11:41.846Z,-1.63
2022-12-03T07:14:11.018Z,-1.60
2022-12-03T07:16:39.756Z,-1.62
2022-12-03T07:19:07.992Z,-1.65
2022-12-03T07:21:35.807Z,-1.61
2022-12-03T07:24:05.532Z,-1.68
2022-12-03T07:26:33.509Z,-1.64
2022-12-03T07:29:01.156Z,-1.65
2022-12-03T07:31:28.822Z,-1.68
2022-12-03T07:33:56.511Z,-1.73
2022-12-03T07:36:24.248Z,-1.74
2022-12-03T07:38:52.016Z,-1.74
2022-12-03T07:41:21.078Z,-1.74
2022-12-03T07:43:48.734Z,-1.68
2022-12-03T07:46:16.395Z,-1.63
2022-12-03T07:48:44.175Z,-1.60
2022-12-03T07:51:15.265Z,-1.60
2022-12-03T07:53:43.368Z,-1.65
2022-12-03T07:56:11.123Z,-1.68
2022-12-03T07:58:40.114Z,-1.66
2022-12-03T08:01:07.877Z,-1.64
2022-12-03T08:03:35.532Z,-1.63
2022-12-03T08:06:03.220Z,-1.56
2022-12-03T08:08:30.876Z,-1.64
2022-12-03T08:10:58.521Z,-1.68
2022-12-03T08:13:26.159Z,-1.70
2022-12-03T08:15:57.273Z,-1.69
2022-12-03T08:18:24.969Z,-1.66
2022-12-03T08:20:53.550Z,-1.66
2022-12-03T08:23:22.685Z,-1.62
2022-12-03T08:25:51.842Z,-1.65
2022-12-03T08:28:21.605Z,-1.63
2022-12-03T08:31:01.780Z,-1.62
2022-12-03T08:33:33.520Z,-1.62
2022-12-03T08:36:03.039Z,-1.65
2022-12-03T08:38:30.782Z,-1.60
2022-12-03T08:40:59.092Z,-1.62
2022-12-03T08:43:28.055Z,-1.61
2022-12-03T08:45:57.465Z,-1.63
2022-12-03T08:48:36.751Z,-1.68
2022-12-03T08:51:20.034Z,-1.70
2022-12-03T08:53:49.276Z,-1.62
2022-12-03T08:56:25.483Z,-1.54
2022-12-03T08:58:56.194Z,-1.56
2022-12-03T09:01:35.929Z,-1.56
2022-12-03T09:04:20.955Z,-1.51
2022-12-03T09:06:48.623Z,-1.48
2022-12-03T09:09:16.566Z,-1.50
2022-12-03T09:11:44.247Z,-1.50
2022-12-03T09:14:18.150Z,-1.53
2022-12-03T09:16:46.379Z,-1.55
2022-12-03T09:19:15.434Z,-1.54
2022-12-03T09:21:43.072Z,-1.46
2022-12-03T09:24:10.732Z,-1.48
2022-12-03T09:26:38.379Z,-1.49
2022-12-03T09:29:11.678Z,-1.50
2022-12-03T09:31:40.084Z,-1.50
2022-12-03T09:34:07.952Z,-1.45
2022-12-03T09:36:36.923Z,-1.42
2022-12-03T09:39:04.710Z,-1.38
2022-12-03T09:41:32.402Z,-1.36
2022-12-03T09:44:04.683Z,-1.38
2022-12-03T09:46:33.668Z,-1.33
2022-12-03T09:49:01.830Z,-1.34
2022-12-03T09:51:37.576Z,-1.40
2022-12-03T09:54:08.159Z,-1.41
2022-12-03T09:56:38.316Z,-1.45
2022-12-03T09:59:07.828Z,-1.47
2022-12-03T10:01:36.019Z,-1.44
2022-12-03T10:04:03.853Z,-1.43
2022-12-03T10:06:31.822Z,-1.40
2022-12-03T10:09:00.982Z,-1.43
2022-12-03T10:11:31.338Z,-1.38
2022-12-03T10:13:59.571Z,-1.35
2022-12-03T10:16:29.604Z,-1.33
2022-12-03T10:19:00.461Z,-1.31
2022-12-03T10:21:32.056Z,-1.35
2022-12-03T10:24:20.910Z,-1.32
2022-12-03T10:26:50.334Z,-1.32
2022-12-03T10:29:20.174Z,-1.27
2022-12-03T10:31:55.835Z,-1.28
2022-12-03T10:34:30.448Z,-1.28
2022-12-03T10:37:14.804Z,-1.25
2022-12-03T10:40:01.251Z,-1.26
2022-12-03T10:42:30.462Z,-1.28
2022-12-03T10:45:19.048Z,-1.31
2022-12-03T10:48:06.073Z,-1.16
2022-12-03T10:50:35.295Z,-1.22
2022-12-03T10:53:03.136Z,-1.21
2022-12-03T10:55:38.692Z,-1.16
2022-12-03T10:58:06.529Z,-1.18
2022-12-03T11:00:34.215Z,-1.18
2022-12-03T11:03:02.551Z,-1.15
2022-12-03T11:05:30.298Z,-1.17
2022-12-03T11:07:58.130Z,-1.20
2022-12-03T11:10:26.314Z,-1.20
2022-12-03T11:13:30.044Z,-1.18
2022-12-03T11:15:58.110Z,-1.18
2022-12-03T11:18:58.918Z,-1.09
2022-12-03T11:21:26.585Z,-1.14
2022-12-03T11:24:05.119Z,-1.13
2022-12-03T11:27:08.706Z,-1.06
2022-12-03T11:30:01.460Z,-1.08
2022-12-03T11:33:08.603Z,-1.10
2022-12-03T11:35:59.046Z,-1.14
2022-12-03T11:38:52.420Z,-1.11
2022-12-03T11:41:25.736Z,-1.11
2022-12-03T11:44:27.485Z,-1.07
2022-12-03T11:46:56.430Z,-1.07
2022-12-03T11:49:29.636Z,-1.12
2022-12-03T11:51:58.240Z,-1.13
2022-12-03T11:54:25.914Z,-1.14
2022-12-03T11:56:56.037Z,-1.11
2022-12-03T11:59:23.710Z,-1.11
2022-12-03T12:01:51.377Z,-1.13
2022-12-03T12:04:32.005Z,-1.14
2022-12-03T12:07:00.085Z,-1.11
2022-12-03T12:09:50.283Z,-1.11
2022-12-03T12:12:30.591Z,-1.08
2022-12-03T12:14:58.838Z,-1.11
2022-12-03T12:17:33.779Z,-0.91
2022-12-03T12:20:24.535Z,-0.95
2022-12-03T12:22:52.555Z,-1.02
2022-12-03T12:25:43.609Z,-1.08
2022-12-03T12:28:12.696Z,-1.09
2022-12-03T12:30:40.378Z,-1.06
2022-12-03T12:33:22.915Z,-1.13
2022-12-03T12:35:50.763Z,-1.15
2022-12-03T12:38:19.828Z,-1.11
2022-12-03T12:40:50.125Z,-1.09
2022-12-03T12:43:25.849Z,-1.16
2022-12-03T12:45:55.443Z,-1.18
2022-12-03T12:48:25.973Z,-1.20
2022-12-03T12:50:59.555Z,-1.19
2022-12-03T12:53:28.698Z,-1.17
2022-12-03T12:55:58.731Z,-1.22
2022-12-03T12:58:31.249Z,-1.19
2022-12-03T13:01:01.616Z,-1.20
2022-12-03T13:03:30.415Z,-1.20
2022-12-03T13:05:58.429Z,-1.22
2022-12-03T13:08:29.070Z,-1.20
2022-12-03T13:10:57.789Z,-1.19
2022-12-03T13:13:40.138Z,-1.15
2022-12-03T13:16:13.296Z,-1.22
2022-12-03T13:18:44.813Z,-1.23
2022-12-03T13:21:26.382Z,-1.18
2022-12-03T13:23:56.198Z,-1.15
2022-12-03T13:26:36.415Z,-1.18
2022-12-03T13:29:14.673Z,-1.10
2022-12-03T13:31:47.946Z,-1.05
2022-12-03T13:34:20.840Z,-1.10
2022-12-03T13:36:55.409Z,-1.08
2022-12-03T13:39:29.887Z,-1.14
2022-12-03T13:42:16.396Z,-1.14
2022-12-03T13:44:50.198Z,-1.20
2022-12-03T13:47:21.845Z,-1.21
2022-12-03T13:49:53.620Z,-1.19
2022-12-03T13:52:25.262Z,-1.18
2022-12-03T13:54:55.285Z,-1.20
2022-12-03T13:57:23.749Z,-1.15
2022-12-03T13:59:53.320Z,-1.17
2022-12-03T14:02:21.713Z,-1.19
2022-12-03T14:04:49.702Z,-1.23
2022-12-03T14:07:18.184Z,-1.22
2022-12-03T14:09:46.149Z,-1.22
2022-12-03T14:12:33.768Z,-1.22
2022-12-03T14:15:04.921Z,-1.20
2022-12-03T14:17:33.000Z,-1.20
2022-12-03T14:20:01.914Z,-1.19
2022-12-03T14:22:30.566Z,-1.20
2022-12-03T14:24:58.857Z,-1.16
2022-12-03T14:27:27.639Z,-1.19
2022-12-03T14:29:55.898Z,-1.17
2022-12-03T14:32:26.078Z,-1.18
2022-12-03T14:34:54.651Z,-1.22
2022-12-03T14:37:22.985Z,-1.21
2022-12-03T14:39:51.090Z,-1.23
2022-12-03T14:42:19.218Z,-1.23
2022-12-03T14:44:49.071Z,-1.22
2022-12-03T14:47:18.927Z,-1.21
2022-12-03T14:49:48.293Z,-1.20
2022-12-03T14:52:16.953Z,-1.17
2022-12-03T14:54:46.199Z,-1.20
2022-12-03T14:57:16.094Z,-1.15
2022-12-03T14:59:45.927Z,-1.11
2022-12-03T15:02:14.473Z,-1.14
2022-12-03T15:04:42.963Z,-1.15
2022-12-03T15:07:12.462Z,-1.17
2022-12-03T15:09:40.430Z,-1.14
2022-12-03T15:12:09.118Z,-1.16
2022-12-03T15:14:37.190Z,-1.14
2022-12-03T15:17:05.403Z,-1.13
2022-12-03T15:19:33.741Z,-1.14
2022-12-03T15:22:01.886Z,-1.11
2022-12-03T15:24:31.611Z,-1.10
2022-12-03T15:27:00.000Z,-1.10
2022-12-03T15:29:28.163Z,-1.08
2022-12-03T15:31:56.599Z,-1.07
2022-12-03T15:34:25.029Z,-1.07
2022-12-03T15:36:53.502Z,-1.07
2022-12-03T15:39:21.642Z,-1.06
2022-12-03T15:41:50.967Z,-1.08
2022-12-03T15:44:19.140Z,-1.09
2022-12-03T15:46:47.691Z,-1.06
2022-12-03T15:49:15.972Z,-1.06
2022-12-03T15:51:44.064Z,-1.03
2022-12-03T15:54:12.627Z,-1.06
2022-12-03T15:56:40.694Z,-1.03
2022-12-03T15:59:10.342Z,-1.05
2022-12-03T16:01:38.403Z,-1.05
2022-12-03T16:04:06.644Z,-1.11
2022-12-03T16:06:34.701Z,-1.13
2022-12-03T16:09:02.807Z,-1.10
2022-12-03T16:11:30.928Z,-1.07
2022-12-03T16:13:59.517Z,-1.07
2022-12-03T16:16:29.136Z,-1.09
2022-12-03T16:18:57.214Z,-1.07
2022-12-03T16:21:27.241Z,-1.06
2022-12-03T16:23:55.935Z,-1.05
2022-12-03T16:26:24.240Z,-1.05
2022-12-03T16:28:52.055Z,-1.10
2022-12-03T16:31:20.239Z,-1.11
2022-12-03T16:33:49.897Z,-1.01
2022-12-03T16:36:18.114Z,-1.02
2022-12-03T16:38:45.992Z,-1.07
2022-12-03T16:41:14.353Z,-1.06
2022-12-03T16:43:45.591Z,-1.10
2022-12-03T16:46:26.286Z,-1.06
2022-12-03T16:48:57.912Z,-1.06
2022-12-03T16:51:26.535Z,-1.05
2022-12-03T16:53:55.156Z,-1.05
2022-12-03T16:56:23.486Z,-1.07
2022-12-03T16:58:51.709Z,-1.05
2022-12-03T17:01:19.827Z,-1.10
2022-12-03T17:03:47.880Z,-1.05
2022-12-03T17:06:17.360Z,-1.06
2022-12-03T17:08:49.359Z,-0.98
2022-12-03T17:11:18.537Z,-1.02
2022-12-03T17:13:46.818Z,-0.97
2022-12-03T17:16:15.284Z,-1.02
2022-12-03T17:18:43.647Z,-1.01
2022-12-03T17:21:11.683Z,-0.96
2022-12-03T17:23:40.910Z,-0.96
2022-12-03T17:26:08.927Z,-0.97
2022-12-03T17:28:36.790Z,-1.01
2022-12-03T17:31:05.155Z,-0.98
2022-12-03T17:33:33.146Z,-0.97
2022-12-03T17:36:01.479Z,-1.01
2022-12-03T17:38:34.003Z,-1.00
2022-12-03T17:41:07.480Z,-1.03
2022-12-03T17:43:35.369Z,-1.03
2022-12-03T17:46:05.115Z,-1.02
2022-12-03T17:48:33.105Z,-0.98
2022-12-03T17:51:01.575Z,-0.98
2022-12-03T17:53:29.588Z,-1.02
2022-12-03T17:55:57.502Z,-0.99
2022-12-03T17:58:27.651Z,-0.98
2022-12-03T18:01:01.780Z,-0.96
2022-12-03T18:03:30.392Z,-0.98
2022-12-03T18:05:58.459Z,-0.95
2022-12-03T18:08:26.360Z,-0.87
2022-12-03T18:10:54.252Z,-0.93
2022-12-03T18:13:22.351Z,-0.97
2022-12-03T18:15:51.834Z,-0.96
2022-12-03T18:18:20.261Z,-0.93
2022-12-03T18:20:48.309Z,-0.88
2022-12-03T18:23:16.485Z,-0.91
2022-12-03T18:25:44.651Z,-0.95
2022-12-03T18:28:12.272Z,-0.96
2022-12-03T18:30:39.915Z,-0.94
2022-12-03T18:33:08.983Z,-0.89
2022-12-03T18:35:36.698Z,-0.91
2022-12-03T18:38:04.424Z,-0.93
2022-12-03T18:40:32.103Z,-0.96
2022-12-03T18:42:59.895Z,-0.90
2022-12-03T18:45:27.533Z,-0.87
2022-12-03T18:47:55.701Z,-0.85
2022-12-03T18:50:24.662Z,-0.82
2022-12-03T18:52:52.413Z,-0.90
2022-12-03T18:55:20.593Z,-0.92
2022-12-03T18:57:48.234Z,-0.87
2022-12-03T19:00:17.070Z,-0.80
2022-12-03T19:05:35.880Z,-0.88
2022-12-03T19:08:04.127Z,-0.85
2022-12-03T19:10:31.865Z,-0.81
2022-12-03T19:12:59.574Z,-0.83
2022-12-03T19:15:27.234Z,-0.90
2022-12-03T19:17:54.847Z,-0.87
2022-12-03T19:20:22.798Z,-0.87
2022-12-03T19:22:52.144Z,-0.86
2022-12-03T19:25:22.372Z,-0.89
2022-12-03T19:27:50.819Z,-0.89
2022-12-03T19:30:19.192Z,-0.87
2022-12-03T19:32:48.605Z,-0.85
2022-12-03T19:35:19.523Z,-0.89
2022-12-03T19:37:48.347Z,-0.88
2022-12-03T19:40:18.640Z,-0.81
2022-12-03T19:42:49.821Z,-0.80
2022-12-03T19:45:17.976Z,-0.83
2022-12-03T19:47:47.383Z,-0.85
2022-12-03T19:50:22.503Z,-0.81
2022-12-03T19:52:54.177Z,-0.82
2022-12-03T19:55:25.963Z,-0.84
2022-12-03T19:57:54.043Z,-0.81
2022-12-03T20:00:22.224Z,-0.83
2022-12-03T20:02:54.726Z,-0.81
2022-12-03T20:05:22.497Z,-0.83
2022-12-03T20:07:50.333Z,-0.74
2022-12-03T20:10:18.166Z,-0.77
2022-12-03T20:12:47.726Z,-0.82
2022-12-03T20:15:15.510Z,-0.81
2022-12-03T20:17:43.417Z,-0.80
2022-12-03T20:20:15.034Z,-0.78
2022-12-03T20:22:42.872Z,-0.81
2022-12-03T20:25:11.669Z,-0.78
2022-12-03T20:27:39.718Z,-0.80
2022-12-03T20:30:12.803Z,-0.79
2022-12-03T20:32:45.330Z,-0.76
2022-12-03T20:35:21.476Z,-0.79
2022-12-03T20:37:49.317Z,-0.74
2022-12-03T20:40:17.303Z,-0.73
2022-12-03T20:42:51.639Z,-0.76
2022-12-03T20:45:20.650Z,-0.76
2022-12-03T20:47:51.113Z,-0.76
2022-12-03T20:50:18.943Z,-0.78
2022-12-03T20:53:09.376Z,-0.77
2022-12-03T20:55:34.975Z,-0.78
2022-12-03T20:58:02.910Z,-0.62
2022-12-03T21:00:32.609Z,-0.63
2022-12-03T21:03:00.523Z,-0.70
2022-12-03T21:05:28.536Z,-0.76
2022-12-03T21:07:56.342Z,-0.73
2022-12-03T21:10:44.982Z,-0.72
2022-12-03T21:13:14.524Z,-0.75
2022-12-03T21:15:44.124Z,-0.70
2022-12-03T21:18:14.351Z,-0.70
2022-12-03T21:20:42.854Z,-0.73
2022-12-03T21:23:13.826Z,-0.72
2022-12-03T21:25:41.987Z,-0.72
2022-12-03T21:28:10.975Z,-0.74
2022-12-03T21:30:40.522Z,-0.73
2022-12-03T21:33:10.095Z,-0.77
2022-12-03T21:35:38.761Z,-0.75
2022-12-03T21:38:10.897Z,-0.73
2022-12-03T21:40:38.754Z,-0.77
2022-12-03T21:43:06.653Z,-0.77
2022-12-03T21:45:37.311Z,-0.73
2022-12-03T21:48:05.545Z,-0.74
2022-12-03T21:50:37.099Z,-0.77
2022-12-03T21:53:05.288Z,-0.76
2022-12-03T21:55:33.249Z,-0.77
2022-12-03T21:58:01.277Z,-0.76
2022-12-03T22:00:29.050Z,-0.73
2022-12-03T22:02:56.980Z,-0.70
2022-12-03T22:05:24.888Z,-0.70
2022-12-03T22:07:54.210Z,-0.69
2022-12-03T22:10:22.084Z,-0.74
2022-12-03T22:12:49.798Z,-0.74
2022-12-03T22:15:19.423Z,-0.76
2022-12-03T22:17:47.597Z,-0.76
2022-12-03T22:20:16.004Z,-0.77
2022-12-03T22:22:43.806Z,-0.78
2022-12-03T22:25:13.064Z,-0.74
2022-12-03T22:27:40.877Z,-0.74
2022-12-03T22:30:10.042Z,-0.81
2022-12-03T22:32:38.054Z,-0.82
2022-12-03T22:35:06.676Z,-0.75
2022-12-03T22:37:34.348Z,-0.74
2022-12-03T22:40:02.300Z,-0.74
2022-12-03T22:42:31.525Z,-0.75
2022-12-03T22:44:59.301Z,-0.73
2022-12-03T22:47:27.102Z,-0.74
2022-12-03T22:49:55.193Z,-0.76
2022-12-03T22:52:23.464Z,-0.74
2022-12-03T22:54:51.232Z,-0.74
2022-12-03T22:57:19.233Z,-0.72
2022-12-03T22:59:48.460Z,-0.72
2022-12-03T23:02:19.270Z,-0.68
2022-12-03T23:04:47.175Z,-0.69
2022-12-03T23:07:15.060Z,-0.69
2022-12-03T23:09:42.819Z,-0.70
2022-12-03T23:12:10.588Z,-0.71
2022-12-03T23:14:38.490Z,-0.66
2022-12-03T23:17:07.562Z,-0.67
2022-12-03T23:19:35.595Z,-0.69
2022-12-03T23:22:03.506Z,-0.71
2022-12-03T23:24:33.392Z,-0.72
2022-12-03T23:27:01.129Z,-0.68
2022-12-03T23:29:28.919Z,-0.70
2022-12-03T23:31:58.216Z,-0.66
2022-12-03T23:34:27.554Z,-0.69
2022-12-03T23:36:55.402Z,-0.70
2022-12-03T23:39:23.317Z,-0.68
2022-12-03T23:41:55.570Z,-0.68
2022-12-03T23:44:23.950Z,-0.68
2022-12-03T23:46:51.840Z,-0.68
2022-12-03T23:49:19.653Z,-0.74
2022-12-03T23:51:48.990Z,-0.72
2022-12-03T23:54:16.766Z,-0.73
2022-12-03T23:56:44.630Z,-0.74
2022-12-03T23:59:12.491Z,-0.69
